sensor_id;sensor_type;location;lat;lon;timestamp;P1;durP1;ratioP1;P2;durP2;ratioP2
65535;SDS011;52145;49.342;9.116;2023-08-06T00:00:00;7.25;;;3.85;;
65535;SDS011;52145;49.342;9.116;2023-08-06T00:02:26;6.70;;;4.05;;
65535;SDS011;52145;49.342;9.116;2023-08-06T00:04:51;4.88;;;3.38;;
65535;SDS011;52145;49.342;9.116;2023-08-06T00:07:17;6.38;;;3.85;;
65535;SDS011;52145;49.342;9.116;2023-08-06T00:09:43;4.78;;;3.30;;
65535;SDS011;52145;49.342;9.116;2023-08-06T00:12:09;4.78;;;3.20;;
65535;SDS011;52145;49.342;9.116;2023-08-06T00:14:35;6.57;;;3.53;;
65535;SDS011;52145;49.342;9.116;2023-08-06T00:17:01;4.82;;;3.15;;
65535;SDS011;52145;49.342;9.116;2023-08-06T00:19:27;5.40;;;3.70;;
65535;SDS011;52145;49.342;9.116;2023-08-06T00:21:53;6.88;;;3.58;;
65535;SDS011;52145;49.342;9.116;2023-08-06T00:24:19;5.70;;;3.42;;
65535;SDS011;52145;49.342;9.116;2023-08-06T00:26:45;5.57;;;3.50;;
65535;SDS011;52145;49.342;9.116;2023-08-06T00:29:11;7.13;;;4.18;;
65535;SDS011;52145;49.342;9.116;2023-08-06T00:31:37;7.50;;;3.90;;
65535;SDS011;52145;49.342;9.116;2023-08-06T00:34:03;7.75;;;3.90;;
65535;SDS011;52145;49.342;9.116;2023-08-06T00:36:29;6.65;;;3.90;;
65535;SDS011;52145;49.342;9.116;2023-08-06T00:38:55;7.25;;;3.90;;
65535;SDS011;52145;49.342;9.116;2023-08-06T00:41:21;6.32;;;4.20;;
65535;SDS011;52145;49.342;9.116;2023-08-06T00:43:47;5.38;;;3.30;;
65535;SDS011;52145;49.342;9.116;2023-08-06T00:46:13;6.15;;;3.30;;
65535;SDS011;52145;49.342;9.116;2023-08-06T00:48:39;6.45;;;3.35;;
65535;SDS011;52145;49.342;9.116;2023-08-06T00:51:05;7.22;;;4.03;;
65535;SDS011;52145;49.342;9.116;2023-08-06T00:53:32;7.45;;;3.17;;
65535;SDS011;52145;49.342;9.116;2023-08-06T00:55:58;6.80;;;3.40;;
65535;SDS011;52145;49.342;9.116;2023-08-06T00:58:24;7.32;;;3.28;;
65535;SDS011;52145;49.342;9.116;2023-08-06T01:00:50;5.20;;;3.20;;
65535;SDS011;52145;49.342;9.116;2023-08-06T01:03:16;5.55;;;3.05;;
65535;SDS011;52145;49.342;9.116;2023-08-06T01:05:42;4.43;;;3.05;;
65535;SDS011;52145;49.342;9.116;2023-08-06T01:08:15;4.32;;;3.15;;
65535;SDS011;52145;49.342;9.116;2023-08-06T01:13:37;6.88;;;3.38;;
65535;SDS011;52145;49.342;9.116;2023-08-06T01:16:03;4.95;;;2.70;;
65535;SDS011;52145;49.342;9.116;2023-08-06T01:18:30;4.68;;;2.70;;
65535;SDS011;52145;49.342;9.116;2023-08-06T01:20:56;4.15;;;2.60;;
65535;SDS011;52145;49.342;9.116;2023-08-06T01:23:22;4.75;;;2.65;;
65535;SDS011;52145;49.342;9.116;2023-08-06T01:25:50;5.10;;;2.90;;
65535;SDS011;52145;49.342;9.116;2023-08-06T01:28:23;4.55;;;3.10;;
65535;SDS011;52145;49.342;9.116;2023-08-06T01:30:52;4.97;;;3.33;;
65535;SDS011;52145;49.342;9.116;2023-08-06T01:33:21;6.10;;;2.78;;
65535;SDS011;52145;49.342;9.116;2023-08-06T01:35:48;3.70;;;2.53;;
65535;SDS011;52145;49.342;9.116;2023-08-06T01:38:15;4.25;;;3.17;;
65535;SDS011;52145;49.342;9.116;2023-08-06T01:40:41;8.35;;;3.70;;
65535;SDS011;52145;49.342;9.116;2023-08-06T01:43:07;4.93;;;3.33;;
65535;SDS011;52145;49.342;9.116;2023-08-06T01:45:33;4.63;;;2.85;;
65535;SDS011;52145;49.342;9.116;2023-08-06T01:47:59;5.43;;;3.20;;
65535;SDS011;52145;49.342;9.116;2023-08-06T01:50:25;5.78;;;3.15;;
65535;SDS011;52145;49.342;9.116;2023-08-06T01:52:51;4.32;;;2.55;;
65535;SDS011;52145;49.342;9.116;2023-08-06T01:55:16;5.13;;;2.88;;
65535;SDS011;52145;49.342;9.116;2023-08-06T01:57:43;5.32;;;3.08;;
65535;SDS011;52145;49.342;9.116;2023-08-06T02:00:09;6.55;;;3.28;;
65535;SDS011;52145;49.342;9.116;2023-08-06T02:02:35;5.50;;;3.08;;
65535;SDS011;52145;49.342;9.116;2023-08-06T02:05:01;5.20;;;2.92;;
65535;SDS011;52145;49.342;9.116;2023-08-06T02:07:27;7.85;;;3.38;;
65535;SDS011;52145;49.342;9.116;2023-08-06T02:09:53;4.90;;;3.25;;
65535;SDS011;52145;49.342;9.116;2023-08-06T02:12:19;5.43;;;3.33;;
65535;SDS011;52145;49.342;9.116;2023-08-06T02:14:44;9.02;;;3.13;;
65535;SDS011;52145;49.342;9.116;2023-08-06T02:17:10;5.30;;;3.10;;
65535;SDS011;52145;49.342;9.116;2023-08-06T02:19:36;6.28;;;3.17;;
65535;SDS011;52145;49.342;9.116;2023-08-06T02:22:02;5.78;;;3.30;;
65535;SDS011;52145;49.342;9.116;2023-08-06T02:24:28;9.70;;;3.28;;
65535;SDS011;52145;49.342;9.116;2023-08-06T02:26:54;5.47;;;3.13;;
65535;SDS011;52145;49.342;9.116;2023-08-06T02:29:21;5.20;;;3.30;;
65535;SDS011;52145;49.342;9.116;2023-08-06T02:31:47;8.23;;;2.97;;
65535;SDS011;52145;49.342;9.116;2023-08-06T02:34:13;5.60;;;3.17;;
65535;SDS011;52145;49.342;9.116;2023-08-06T02:36:38;4.97;;;2.80;;
65535;SDS011;52145;49.342;9.116;2023-08-06T02:39:04;4.25;;;2.97;;
65535;SDS011;52145;49.342;9.116;2023-08-06T02:41:30;5.75;;;3.17;;
65535;SDS011;52145;49.342;9.116;2023-08-06T02:43:57;7.22;;;3.50;;
65535;SDS011;52145;49.342;9.116;2023-08-06T02:46:23;6.35;;;3.20;;
65535;SDS011;52145;49.342;9.116;2023-08-06T02:48:49;6.60;;;3.42;;
65535;SDS011;52145;49.342;9.116;2023-08-06T02:51:15;4.93;;;3.28;;
65535;SDS011;52145;49.342;9.116;2023-08-06T02:53:40;8.25;;;3.75;;
65535;SDS011;52145;49.342;9.116;2023-08-06T02:56:06;5.32;;;3.30;;
65535;SDS011;52145;49.342;9.116;2023-08-06T02:58:32;5.10;;;3.40;;
65535;SDS011;52145;49.342;9.116;2023-08-06T03:00:59;8.10;;;3.35;;
65535;SDS011;52145;49.342;9.116;2023-08-06T03:03:25;6.28;;;3.88;;
65535;SDS011;52145;49.342;9.116;2023-08-06T03:05:54;5.80;;;2.97;;
65535;SDS011;52145;49.342;9.116;2023-08-06T03:08:20;5.18;;;3.13;;
65535;SDS011;52145;49.342;9.116;2023-08-06T03:10:47;5.65;;;3.38;;
65535;SDS011;52145;49.342;9.116;2023-08-06T03:13:14;6.78;;;3.88;;
65535;SDS011;52145;49.342;9.116;2023-08-06T03:15:39;5.78;;;3.63;;
65535;SDS011;52145;49.342;9.116;2023-08-06T03:18:05;5.47;;;3.50;;
65535;SDS011;52145;49.342;9.116;2023-08-06T03:20:32;5.78;;;3.85;;
65535;SDS011;52145;49.342;9.116;2023-08-06T03:22:57;7.22;;;3.80;;
65535;SDS011;52145;49.342;9.116;2023-08-06T03:25:23;4.97;;;3.50;;
65535;SDS011;52145;49.342;9.116;2023-08-06T03:27:49;5.88;;;3.28;;
65535;SDS011;52145;49.342;9.116;2023-08-06T03:30:15;7.75;;;3.35;;
65535;SDS011;52145;49.342;9.116;2023-08-06T03:32:41;7.25;;;2.88;;
65535;SDS011;52145;49.342;9.116;2023-08-06T03:35:07;4.15;;;3.10;;
65535;SDS011;52145;49.342;9.116;2023-08-06T03:37:33;5.47;;;2.90;;
65535;SDS011;52145;49.342;9.116;2023-08-06T03:39:59;4.45;;;2.63;;
65535;SDS011;52145;49.342;9.116;2023-08-06T03:42:25;4.55;;;2.97;;
65535;SDS011;52145;49.342;9.116;2023-08-06T03:44:51;5.43;;;3.00;;
65535;SDS011;52145;49.342;9.116;2023-08-06T03:47:17;4.05;;;2.55;;
65535;SDS011;52145;49.342;9.116;2023-08-06T03:49:43;5.00;;;2.42;;
65535;SDS011;52145;49.342;9.116;2023-08-06T03:52:09;5.93;;;2.50;;
65535;SDS011;52145;49.342;9.116;2023-08-06T03:54:35;6.88;;;3.20;;
65535;SDS011;52145;49.342;9.116;2023-08-06T03:57:01;3.38;;;1.80;;
65535;SDS011;52145;49.342;9.116;2023-08-06T03:59:27;4.15;;;2.25;;
65535;SDS011;52145;49.342;9.116;2023-08-06T04:01:53;6.43;;;2.20;;
65535;SDS011;52145;49.342;9.116;2023-08-06T04:04:19;5.13;;;2.83;;
65535;SDS011;52145;49.342;9.116;2023-08-06T04:06:45;5.10;;;1.75;;
65535;SDS011;52145;49.342;9.116;2023-08-06T04:09:11;6.35;;;2.10;;
65535;SDS011;52145;49.342;9.116;2023-08-06T04:11:38;10.32;;;2.63;;
65535;SDS011;52145;49.342;9.116;2023-08-06T04:14:04;4.47;;;1.90;;
65535;SDS011;52145;49.342;9.116;2023-08-06T04:16:30;4.32;;;1.80;;
65535;SDS011;52145;49.342;9.116;2023-08-06T04:18:56;7.50;;;2.10;;
65535;SDS011;52145;49.342;9.116;2023-08-06T04:21:23;6.05;;;2.45;;
65535;SDS011;52145;49.342;9.116;2023-08-06T04:23:49;5.88;;;1.83;;
65535;SDS011;52145;49.342;9.116;2023-08-06T04:26:15;6.15;;;1.85;;
65535;SDS011;52145;49.342;9.116;2023-08-06T04:28:40;7.28;;;2.30;;
65535;SDS011;52145;49.342;9.116;2023-08-06T04:31:06;4.55;;;1.70;;
65535;SDS011;52145;49.342;9.116;2023-08-06T04:33:32;5.05;;;1.90;;
65535;SDS011;52145;49.342;9.116;2023-08-06T04:35:59;5.88;;;1.52;;
65535;SDS011;52145;49.342;9.116;2023-08-06T04:38:25;5.00;;;2.00;;
65535;SDS011;52145;49.342;9.116;2023-08-06T04:40:51;4.07;;;1.63;;
65535;SDS011;52145;49.342;9.116;2023-08-06T04:43:17;3.08;;;1.67;;
65535;SDS011;52145;49.342;9.116;2023-08-06T04:45:47;3.78;;;1.38;;
65535;SDS011;52145;49.342;9.116;2023-08-06T04:48:13;6.88;;;1.85;;
65535;SDS011;52145;49.342;9.116;2023-08-06T04:50:43;3.30;;;1.42;;
65535;SDS011;52145;49.342;9.116;2023-08-06T04:53:09;9.63;;;1.58;;
65535;SDS011;52145;49.342;9.116;2023-08-06T04:55:34;4.65;;;1.40;;
65535;SDS011;52145;49.342;9.116;2023-08-06T04:58:00;4.13;;;1.40;;
65535;SDS011;52145;49.342;9.116;2023-08-06T05:00:26;3.78;;;1.50;;
65535;SDS011;52145;49.342;9.116;2023-08-06T05:02:52;4.00;;;1.30;;
65535;SDS011;52145;49.342;9.116;2023-08-06T05:05:18;4.57;;;1.50;;
65535;SDS011;52145;49.342;9.116;2023-08-06T05:07:45;3.22;;;1.35;;
65535;SDS011;52145;49.342;9.116;2023-08-06T05:10:11;3.53;;;1.38;;
65535;SDS011;52145;49.342;9.116;2023-08-06T05:12:37;3.67;;;1.27;;
65535;SDS011;52145;49.342;9.116;2023-08-06T05:15:03;4.78;;;1.40;;
65535;SDS011;52145;49.342;9.116;2023-08-06T05:17:29;3.30;;;1.48;;
65535;SDS011;52145;49.342;9.116;2023-08-06T05:19:55;5.63;;;1.55;;
65535;SDS011;52145;49.342;9.116;2023-08-06T05:22:21;6.90;;;1.55;;
65535;SDS011;52145;49.342;9.116;2023-08-06T05:24:47;4.97;;;1.80;;
65535;SDS011;52145;49.342;9.116;2023-08-06T05:27:13;3.78;;;1.60;;
65535;SDS011;52145;49.342;9.116;2023-08-06T05:29:39;4.60;;;1.40;;
65535;SDS011;52145;49.342;9.116;2023-08-06T05:32:05;4.35;;;1.50;;
65535;SDS011;52145;49.342;9.116;2023-08-06T05:34:31;3.42;;;1.25;;
65535;SDS011;52145;49.342;9.116;2023-08-06T05:36:57;6.65;;;2.17;;
65535;SDS011;52145;49.342;9.116;2023-08-06T05:39:23;5.68;;;1.30;;
65535;SDS011;52145;49.342;9.116;2023-08-06T05:41:49;5.28;;;1.40;;
65535;SDS011;52145;49.342;9.116;2023-08-06T05:44:15;3.80;;;2.40;;
65535;SDS011;52145;49.342;9.116;2023-08-06T07:15:06;5.32;;;1.10;;
65535;SDS011;52145;49.342;9.116;2023-08-06T07:17:32;2.30;;;1.00;;
65535;SDS011;52145;49.342;9.116;2023-08-06T07:19:58;2.25;;;0.90;;
65535;SDS011;52145;49.342;9.116;2023-08-06T07:22:24;2.17;;;1.00;;
65535;SDS011;52145;49.342;9.116;2023-08-06T07:24:50;2.10;;;0.88;;
65535;SDS011;52145;49.342;9.116;2023-08-06T07:27:16;3.03;;;1.00;;
65535;SDS011;52145;49.342;9.116;2023-08-06T07:29:42;2.85;;;0.85;;
65535;SDS011;52145;49.342;9.116;2023-08-06T07:32:08;1.50;;;0.88;;
65535;SDS011;52145;49.342;9.116;2023-08-06T07:34:33;2.63;;;0.90;;
65535;SDS011;52145;49.342;9.116;2023-08-06T07:36:59;1.33;;;0.80;;
65535;SDS011;52145;49.342;9.116;2023-08-06T07:59:44;2.05;;;0.60;;
65535;SDS011;52145;49.342;9.116;2023-08-06T08:04:46;0.68;;;0.68;;
65535;SDS011;52145;49.342;9.116;2023-08-06T08:07:14;1.23;;;0.80;;
65535;SDS011;52145;49.342;9.116;2023-08-06T08:09:40;0.93;;;0.68;;
65535;SDS011;52145;49.342;9.116;2023-08-06T08:12:06;2.28;;;0.40;;
65535;SDS011;52145;49.342;9.116;2023-08-06T08:14:32;1.38;;;0.63;;
65535;SDS011;52145;49.342;9.116;2023-08-06T08:17:01;0.40;;;0.40;;
65535;SDS011;52145;49.342;9.116;2023-08-06T08:19:27;1.63;;;0.50;;
65535;SDS011;52145;49.342;9.116;2023-08-06T08:21:53;0.77;;;0.57;;
65535;SDS011;52145;49.342;9.116;2023-08-06T08:24:20;0.70;;;0.60;;
65535;SDS011;52145;49.342;9.116;2023-08-06T08:26:48;0.52;;;0.50;;
65535;SDS011;52145;49.342;9.116;2023-08-06T08:29:14;1.10;;;0.65;;
65535;SDS011;52145;49.342;9.116;2023-08-06T08:31:40;0.55;;;0.50;;
65535;SDS011;52145;49.342;9.116;2023-08-06T08:34:06;1.25;;;0.50;;
65535;SDS011;52145;49.342;9.116;2023-08-06T08:36:32;0.77;;;0.60;;
65535;SDS011;52145;49.342;9.116;2023-08-06T08:38:58;2.53;;;0.60;;
65535;SDS011;52145;49.342;9.116;2023-08-06T08:41:24;1.08;;;0.70;;
65535;SDS011;52145;49.342;9.116;2023-08-06T08:43:50;2.83;;;0.45;;
65535;SDS011;52145;49.342;9.116;2023-08-06T08:46:17;1.33;;;0.40;;
65535;SDS011;52145;49.342;9.116;2023-08-06T08:48:44;0.40;;;0.40;;
65535;SDS011;52145;49.342;9.116;2023-08-06T08:51:10;1.23;;;0.52;;
65535;SDS011;52145;49.342;9.116;2023-08-06T08:53:37;0.50;;;0.50;;
65535;SDS011;52145;49.342;9.116;2023-08-06T08:56:04;0.55;;;0.55;;
65535;SDS011;52145;49.342;9.116;2023-08-06T08:58:30;1.13;;;0.50;;
65535;SDS011;52145;49.342;9.116;2023-08-06T09:00:56;0.52;;;0.52;;
65535;SDS011;52145;49.342;9.116;2023-08-06T09:03:23;0.63;;;0.50;;
65535;SDS011;52145;49.342;9.116;2023-08-06T09:05:50;1.42;;;0.50;;
65535;SDS011;52145;49.342;9.116;2023-08-06T09:08:18;0.82;;;0.50;;
65535;SDS011;52145;49.342;9.116;2023-08-06T09:10:44;1.02;;;0.50;;
65535;SDS011;52145;49.342;9.116;2023-08-06T09:13:10;0.95;;;0.47;;
65535;SDS011;52145;49.342;9.116;2023-08-06T09:15:37;0.80;;;0.80;;
65535;SDS011;52145;49.342;9.116;2023-08-06T09:18:12;1.15;;;0.50;;
65535;SDS011;52145;49.342;9.116;2023-08-06T09:20:38;0.90;;;0.57;;
65535;SDS011;52145;49.342;9.116;2023-08-06T09:23:08;1.27;;;0.55;;
65535;SDS011;52145;49.342;9.116;2023-08-06T09:25:36;1.13;;;0.80;;
65535;SDS011;52145;49.342;9.116;2023-08-06T09:28:03;4.90;;;0.65;;
65535;SDS011;52145;49.342;9.116;2023-08-06T09:30:30;0.98;;;0.80;;
65535;SDS011;52145;49.342;9.116;2023-08-06T09:32:56;3.25;;;0.60;;
65535;SDS011;52145;49.342;9.116;2023-08-06T09:35:22;1.05;;;0.40;;
65535;SDS011;52145;49.342;9.116;2023-08-06T09:37:48;0.52;;;0.50;;
65535;SDS011;52145;49.342;9.116;2023-08-06T09:42:49;0.32;;;0.32;;
65535;SDS011;52145;49.342;9.116;2023-08-06T09:45:16;0.52;;;0.40;;
65535;SDS011;52145;49.342;9.116;2023-08-06T09:47:41;2.85;;;1.20;;
65535;SDS011;52145;49.342;9.116;2023-08-06T09:50:17;5.43;;;1.42;;
65535;SDS011;52145;49.342;9.116;2023-08-06T09:52:43;2.75;;;1.27;;
65535;SDS011;52145;49.342;9.116;2023-08-06T09:55:13;1.05;;;0.38;;
65535;SDS011;52145;49.342;9.116;2023-08-06T09:57:40;1.02;;;0.52;;
65535;SDS011;52145;49.342;9.116;2023-08-06T10:00:07;1.02;;;0.40;;
65535;SDS011;52145;49.342;9.116;2023-08-06T10:02:34;1.77;;;0.70;;
65535;SDS011;52145;49.342;9.116;2023-08-06T10:05:01;2.60;;;0.50;;
65535;SDS011;52145;49.342;9.116;2023-08-06T10:07:27;1.05;;;0.70;;
65535;SDS011;52145;49.342;9.116;2023-08-06T10:09:55;0.85;;;0.30;;
65535;SDS011;52145;49.342;9.116;2023-08-06T10:12:21;0.70;;;0.70;;
65535;SDS011;52145;49.342;9.116;2023-08-06T10:14:49;2.05;;;0.47;;
65535;SDS011;52145;49.342;9.116;2023-08-06T10:17:16;1.85;;;0.65;;
65535;SDS011;52145;49.342;9.116;2023-08-06T10:19:42;1.10;;;0.73;;
65535;SDS011;52145;49.342;9.116;2023-08-06T10:22:12;1.85;;;0.77;;
65535;SDS011;52145;49.342;9.116;2023-08-06T10:24:51;0.88;;;0.63;;
65535;SDS011;52145;49.342;9.116;2023-08-06T10:32:49;2.10;;;0.55;;
65535;SDS011;52145;49.342;9.116;2023-08-06T10:35:28;0.50;;;0.50;;
65535;SDS011;52145;49.342;9.116;2023-08-06T10:37:58;0.95;;;0.30;;
65535;SDS011;52145;49.342;9.116;2023-08-06T10:40:24;0.40;;;0.40;;
65535;SDS011;52145;49.342;9.116;2023-08-06T10:42:51;0.30;;;0.30;;
65535;SDS011;52145;49.342;9.116;2023-08-06T10:45:17;0.57;;;0.40;;
65535;SDS011;52145;49.342;9.116;2023-08-06T10:47:44;0.40;;;0.40;;
65535;SDS011;52145;49.342;9.116;2023-08-06T10:50:11;1.38;;;0.47;;
65535;SDS011;52145;49.342;9.116;2023-08-06T10:52:37;2.15;;;0.90;;
65535;SDS011;52145;49.342;9.116;2023-08-06T10:55:04;0.20;;;0.20;;
65535;SDS011;52145;49.342;9.116;2023-08-06T10:57:30;0.98;;;0.45;;
65535;SDS011;52145;49.342;9.116;2023-08-06T10:59:56;0.47;;;0.40;;
65535;SDS011;52145;49.342;9.116;2023-08-06T11:02:22;1.40;;;0.32;;
65535;SDS011;52145;49.342;9.116;2023-08-06T11:04:48;0.43;;;0.40;;
65535;SDS011;52145;49.342;9.116;2023-08-06T11:07:14;1.30;;;0.60;;
65535;SDS011;52145;49.342;9.116;2023-08-06T11:09:40;0.40;;;0.40;;
65535;SDS011;52145;49.342;9.116;2023-08-06T11:12:10;0.55;;;0.50;;
65535;SDS011;52145;49.342;9.116;2023-08-06T11:14:36;0.45;;;0.45;;
65535;SDS011;52145;49.342;9.116;2023-08-06T11:17:03;1.65;;;0.40;;
65535;SDS011;52145;49.342;9.116;2023-08-06T11:19:29;0.60;;;0.35;;
65535;SDS011;52145;49.342;9.116;2023-08-06T11:21:55;1.40;;;0.50;;
65535;SDS011;52145;49.342;9.116;2023-08-06T11:24:23;0.85;;;0.40;;
65535;SDS011;52145;49.342;9.116;2023-08-06T11:26:49;0.60;;;0.47;;
65535;SDS011;52145;49.342;9.116;2023-08-06T11:29:15;3.15;;;0.60;;
65535;SDS011;52145;49.342;9.116;2023-08-06T11:31:41;0.40;;;0.40;;
65535;SDS011;52145;49.342;9.116;2023-08-06T11:34:07;0.40;;;0.40;;
65535;SDS011;52145;49.342;9.116;2023-08-06T11:36:34;0.50;;;0.30;;
65535;SDS011;52145;49.342;9.116;2023-08-06T11:39:02;0.30;;;0.30;;
65535;SDS011;52145;49.342;9.116;2023-08-06T11:41:31;0.70;;;0.68;;
65535;SDS011;52145;49.342;9.116;2023-08-06T11:43:58;0.80;;;0.60;;
65535;SDS011;52145;49.342;9.116;2023-08-06T11:46:24;0.50;;;0.40;;
65535;SDS011;52145;49.342;9.116;2023-08-06T11:48:54;0.63;;;0.55;;
65535;SDS011;52145;49.342;9.116;2023-08-06T11:51:23;0.60;;;0.57;;
65535;SDS011;52145;49.342;9.116;2023-08-06T11:53:55;0.68;;;0.60;;
65535;SDS011;52145;49.342;9.116;2023-08-06T11:56:21;1.00;;;0.80;;
65535;SDS011;52145;49.342;9.116;2023-08-06T11:58:47;2.78;;;1.52;;
65535;SDS011;52145;49.342;9.116;2023-08-06T12:01:13;0.85;;;0.73;;
65535;SDS011;52145;49.342;9.116;2023-08-06T12:03:39;3.10;;;1.40;;
65535;SDS011;52145;49.342;9.116;2023-08-06T12:06:05;2.50;;;1.10;;
65535;SDS011;52145;49.342;9.116;2023-08-06T12:08:35;2.20;;;1.10;;
65535;SDS011;52145;49.342;9.116;2023-08-06T12:11:03;2.25;;;1.30;;
65535;SDS011;52145;49.342;9.116;2023-08-06T12:13:29;2.10;;;1.20;;
65535;SDS011;52145;49.342;9.116;2023-08-06T12:15:54;3.30;;;1.40;;
65535;SDS011;52145;49.342;9.116;2023-08-06T12:18:22;1.55;;;1.30;;
65535;SDS011;52145;49.342;9.116;2023-08-06T12:20:48;2.58;;;1.50;;
65535;SDS011;52145;49.342;9.116;2023-08-06T12:23:15;2.58;;;1.50;;
65535;SDS011;52145;49.342;9.116;2023-08-06T12:25:41;2.70;;;1.45;;
65535;SDS011;52145;49.342;9.116;2023-08-06T12:28:07;3.17;;;1.58;;
65535;SDS011;52145;49.342;9.116;2023-08-06T12:30:34;2.50;;;1.80;;
65535;SDS011;52145;49.342;9.116;2023-08-06T12:33:00;3.72;;;1.70;;
65535;SDS011;52145;49.342;9.116;2023-08-06T12:35:26;4.43;;;1.70;;
65535;SDS011;52145;49.342;9.116;2023-08-06T12:37:52;4.18;;;1.70;;
65535;SDS011;52145;49.342;9.116;2023-08-06T12:40:19;1.70;;;1.48;;
65535;SDS011;52145;49.342;9.116;2023-08-06T12:42:45;2.72;;;1.50;;
65535;SDS011;52145;49.342;9.116;2023-08-06T12:45:11;2.85;;;1.70;;
65535;SDS011;52145;49.342;9.116;2023-08-06T12:47:37;3.63;;;1.50;;
65535;SDS011;52145;49.342;9.116;2023-08-06T12:50:03;3.20;;;1.60;;
65535;SDS011;52145;49.342;9.116;2023-08-06T12:52:30;3.50;;;1.52;;
65535;SDS011;52145;49.342;9.116;2023-08-06T12:54:55;2.47;;;1.45;;
65535;SDS011;52145;49.342;9.116;2023-08-06T12:57:21;2.67;;;1.40;;
65535;SDS011;52145;49.342;9.116;2023-08-06T12:59:47;3.75;;;1.85;;
65535;SDS011;52145;49.342;9.116;2023-08-06T13:02:13;3.35;;;1.95;;
65535;SDS011;52145;49.342;9.116;2023-08-06T13:04:39;2.58;;;1.40;;
65535;SDS011;52145;49.342;9.116;2023-08-06T13:07:05;3.47;;;1.63;;
65535;SDS011;52145;49.342;9.116;2023-08-06T13:09:32;3.33;;;2.00;;
65535;SDS011;52145;49.342;9.116;2023-08-06T13:11:58;3.60;;;1.60;;
65535;SDS011;52145;49.342;9.116;2023-08-06T13:14:25;3.67;;;1.50;;
65535;SDS011;52145;49.342;9.116;2023-08-06T13:16:51;3.75;;;2.00;;
65535;SDS011;52145;49.342;9.116;2023-08-06T13:19:17;2.65;;;1.35;;
65535;SDS011;52145;49.342;9.116;2023-08-06T13:24:13;2.60;;;1.58;;
65535;SDS011;52145;49.342;9.116;2023-08-06T13:26:39;2.00;;;1.30;;
65535;SDS011;52145;49.342;9.116;2023-08-06T13:29:05;2.75;;;1.52;;
65535;SDS011;52145;49.342;9.116;2023-08-06T13:31:32;2.03;;;1.25;;
65535;SDS011;52145;49.342;9.116;2023-08-06T13:33:58;2.58;;;1.38;;
65535;SDS011;52145;49.342;9.116;2023-08-06T13:36:27;2.85;;;1.88;;
65535;SDS011;52145;49.342;9.116;2023-08-06T13:38:53;4.50;;;1.70;;
65535;SDS011;52145;49.342;9.116;2023-08-06T13:41:19;4.82;;;1.40;;
65535;SDS011;52145;49.342;9.116;2023-08-06T13:43:46;2.38;;;1.17;;
65535;SDS011;52145;49.342;9.116;2023-08-06T13:46:12;2.58;;;1.48;;
65535;SDS011;52145;49.342;9.116;2023-08-06T13:48:43;3.03;;;1.52;;
65535;SDS011;52145;49.342;9.116;2023-08-06T13:51:09;2.75;;;1.10;;
65535;SDS011;52145;49.342;9.116;2023-08-06T13:53:36;1.98;;;1.10;;
65535;SDS011;52145;49.342;9.116;2023-08-06T13:56:02;3.45;;;1.02;;
65535;SDS011;52145;49.342;9.116;2023-08-06T13:58:28;2.92;;;0.80;;
65535;SDS011;52145;49.342;9.116;2023-08-06T14:00:54;1.45;;;1.00;;
65535;SDS011;52145;49.342;9.116;2023-08-06T14:03:21;3.83;;;1.25;;
65535;SDS011;52145;49.342;9.116;2023-08-06T14:05:47;2.78;;;1.17;;
65535;SDS011;52145;49.342;9.116;2023-08-06T14:08:13;3.75;;;1.10;;
65535;SDS011;52145;49.342;9.116;2023-08-06T14:10:39;2.88;;;1.50;;
65535;SDS011;52145;49.342;9.116;2023-08-06T14:13:05;1.83;;;1.23;;
65535;SDS011;52145;49.342;9.116;2023-08-06T14:15:31;6.60;;;1.50;;
65535;SDS011;52145;49.342;9.116;2023-08-06T14:17:58;4.25;;;1.00;;
65535;SDS011;52145;49.342;9.116;2023-08-06T14:20:24;2.45;;;1.17;;
65535;SDS011;52145;49.342;9.116;2023-08-06T14:22:50;2.00;;;1.30;;
65535;SDS011;52145;49.342;9.116;2023-08-06T14:25:16;3.83;;;1.00;;
65535;SDS011;52145;49.342;9.116;2023-08-06T14:27:42;1.63;;;0.90;;
65535;SDS011;52145;49.342;9.116;2023-08-06T14:30:08;2.38;;;1.00;;
65535;SDS011;52145;49.342;9.116;2023-08-06T14:32:34;3.25;;;0.90;;
65535;SDS011;52145;49.342;9.116;2023-08-06T14:35:00;2.70;;;1.05;;
65535;SDS011;52145;49.342;9.116;2023-08-06T14:37:25;2.50;;;0.90;;
65535;SDS011;52145;49.342;9.116;2023-08-06T14:39:51;1.17;;;0.80;;
65535;SDS011;52145;49.342;9.116;2023-08-06T14:42:17;1.63;;;1.10;;
65535;SDS011;52145;49.342;9.116;2023-08-06T14:44:43;1.42;;;0.70;;
65535;SDS011;52145;49.342;9.116;2023-08-06T14:47:09;1.70;;;0.85;;
65535;SDS011;52145;49.342;9.116;2023-08-06T14:49:35;0.63;;;0.50;;
65535;SDS011;52145;49.342;9.116;2023-08-06T14:52:02;1.15;;;0.63;;
65535;SDS011;52145;49.342;9.116;2023-08-06T14:54:28;1.02;;;0.70;;
65535;SDS011;52145;49.342;9.116;2023-08-06T14:56:54;1.65;;;0.95;;
65535;SDS011;52145;49.342;9.116;2023-08-06T14:59:20;2.80;;;0.93;;
65535;SDS011;52145;49.342;9.116;2023-08-06T15:01:46;1.48;;;0.70;;
65535;SDS011;52145;49.342;9.116;2023-08-06T15:04:12;1.98;;;0.88;;
65535;SDS011;52145;49.342;9.116;2023-08-06T15:06:38;1.15;;;1.05;;
65535;SDS011;52145;49.342;9.116;2023-08-06T15:09:04;2.03;;;1.27;;
65535;SDS011;52145;49.342;9.116;2023-08-06T15:11:30;1.08;;;0.80;;
65535;SDS011;52145;49.342;9.116;2023-08-06T15:13:56;1.92;;;0.80;;
65535;SDS011;52145;49.342;9.116;2023-08-06T15:16:23;2.45;;;0.80;;
65535;SDS011;52145;49.342;9.116;2023-08-06T15:18:49;3.72;;;0.90;;
65535;SDS011;52145;49.342;9.116;2023-08-06T15:21:14;2.97;;;0.90;;
65535;SDS011;52145;49.342;9.116;2023-08-06T15:23:41;3.70;;;1.30;;
65535;SDS011;52145;49.342;9.116;2023-08-06T15:26:06;1.38;;;0.80;;
65535;SDS011;52145;49.342;9.116;2023-08-06T15:28:32;1.20;;;1.00;;
65535;SDS011;52145;49.342;9.116;2023-08-06T15:30:58;1.95;;;1.00;;
65535;SDS011;52145;49.342;9.116;2023-08-06T15:33:24;2.67;;;0.75;;
65535;SDS011;52145;49.342;9.116;2023-08-06T15:35:50;1.33;;;0.90;;
65535;SDS011;52145;49.342;9.116;2023-08-06T15:38:16;5.35;;;1.25;;
65535;SDS011;52145;49.342;9.116;2023-08-06T15:40:42;2.15;;;1.42;;
65535;SDS011;52145;49.342;9.116;2023-08-06T15:43:10;1.20;;;0.90;;
65535;SDS011;52145;49.342;9.116;2023-08-06T15:45:36;1.77;;;1.10;;
65535;SDS011;52145;49.342;9.116;2023-08-06T15:48:02;1.50;;;0.90;;
65535;SDS011;52145;49.342;9.116;2023-08-06T15:50:28;2.42;;;1.20;;
65535;SDS011;52145;49.342;9.116;2023-08-06T15:52:54;3.15;;;1.27;;
65535;SDS011;52145;49.342;9.116;2023-08-06T15:55:20;2.45;;;1.20;;
65535;SDS011;52145;49.342;9.116;2023-08-06T15:57:46;4.25;;;1.27;;
65535;SDS011;52145;49.342;9.116;2023-08-06T16:00:12;3.22;;;1.60;;
65535;SDS011;52145;49.342;9.116;2023-08-06T16:02:38;3.55;;;1.27;;
65535;SDS011;52145;49.342;9.116;2023-08-06T16:05:04;3.38;;;1.38;;
65535;SDS011;52145;49.342;9.116;2023-08-06T16:07:31;3.65;;;1.52;;
65535;SDS011;52145;49.342;9.116;2023-08-06T16:09:57;2.30;;;1.10;;
65535;SDS011;52145;49.342;9.116;2023-08-06T16:12:23;1.67;;;1.33;;
65535;SDS011;52145;49.342;9.116;2023-08-06T16:14:50;2.08;;;1.58;;
65535;SDS011;52145;49.342;9.116;2023-08-06T16:17:16;4.18;;;1.23;;
65535;SDS011;52145;49.342;9.116;2023-08-06T16:19:42;2.90;;;1.25;;
65535;SDS011;52145;49.342;9.116;2023-08-06T16:22:09;2.83;;;1.30;;
65535;SDS011;52145;49.342;9.116;2023-08-06T16:24:35;2.22;;;1.15;;
65535;SDS011;52145;49.342;9.116;2023-08-06T16:27:01;1.45;;;0.95;;
65535;SDS011;52145;49.342;9.116;2023-08-06T16:29:27;3.55;;;0.90;;
65535;SDS011;52145;49.342;9.116;2023-08-06T16:31:53;1.75;;;0.90;;
65535;SDS011;52145;49.342;9.116;2023-08-06T16:34:19;1.55;;;1.05;;
65535;SDS011;52145;49.342;9.116;2023-08-06T16:36:45;1.55;;;0.90;;
65535;SDS011;52145;49.342;9.116;2023-08-06T16:39:11;2.13;;;0.82;;
65535;SDS011;52145;49.342;9.116;2023-08-06T16:41:37;3.00;;;0.63;;
65535;SDS011;52145;49.342;9.116;2023-08-06T16:44:03;2.15;;;0.60;;
65535;SDS011;52145;49.342;9.116;2023-08-06T16:46:37;1.33;;;0.80;;